MSC Gina — 3FLY9 — position and weather

sailwx.info

Track history (hours):
 
Tides and Currents Weather Stations Pressure Air Temp Water Temp Dewpoint Dewpoint Depression Visibility Wind Speed Wind Dir Waves Ship Positions

MSC Gina

Last reported at 2015-Jul-02 03:34 UTC. Time now 2015-Jul-02 03:38 UTC.
Position N 43°31' E 010°16'.

Length 259 m; draft 8.3 m.

Type: Ship (hazmat cat A). MMSI: 357542000.

Date/timePositionNaut miles runAvg speedWind from/ knotsBaromVisibWave heightAir tempDewpointWater temp
2015-Jul-02 03:34N 43°31' E 010°16'3 3.5
2015-Jul-02 02:34N 43°28' E 010°13'1817.7
2015-Jul-02 01:33N 43°11' E 010°08'1616.4
2015-Jul-02 00:33N 42°55' E 010°03'1615.7
2015-Jul-01 23:33N 42°40' E 010°09'1717.1
2015-Jul-01 22:33N 42°28' E 010°26'1717.2
2015-Jul-01 21:33N 42°16' E 010°43'1717.0
2015-Jul-01 20:33N 42°04' E 010°59'1717.3
2015-Jul-01 19:33N 41°52' E 011°16'1717.3
2015-Jul-01 18:33N 41°40' E 011°33'1817.5
2015-Jul-01 17:33N 41°28' E 011°50'1817.6
2015-Jul-01 16:33N 41°16' E 012°07'1817.7
2015-Jul-01 15:33N 41°04' E 012°24'1717.0
2015-Jul-01 14:33N 40°52' E 012°40'1515.5
2015-Jul-01 13:33N 40°41' E 012°55'1615.6
2015-Jul-01 12:33N 40°30' E 013°10'1515.4
2015-Jul-01 11:33N 40°20' E 013°24'1818.0
2015-Jul-01 10:33N 40°07' E 013°41'2221.7
2015-Jul-01 09:33N 39°53' E 014°02'2221.7
2015-Jul-01 08:33N 39°38' E 014°23'2020.3
2015-Jul-01 07:33N 39°23' E 014°42'2116.7
2015-Jul-01 06:19N 39°09' E 015°01'1316.5
2015-Jul-01 05:30N 38°60' E 015°14'1616.5
2015-Jul-01 04:33N 38°49' E 015°28'1717.1
2015-Jul-01 03:33N 38°35' E 015°42'1313.0
2015-Jul-01 02:33N 38°27' E 015°54'0 0.1
2015-Jul-01 01:33N 38°27' E 015°54'0 0.0
2015-Jul-01 00:33N 38°27' E 015°54'0 0.0
2015-Jun-30 23:33N 38°27' E 015°54'0 0.0
2015-Jun-30 22:33N 38°27' E 015°54'0 0.0
2015-Jun-30 21:33N 38°27' E 015°54'0 0.0
2015-Jun-30 20:33N 38°27' E 015°54'0 0.0
2015-Jun-30 19:33N 38°27' E 015°54'0 0.0
2015-Jun-30 18:31N 38°27' E 015°54'0 0.0
2015-Jun-30 17:33N 38°27' E 015°54'0 0.0
2015-Jun-30 16:33N 38°27' E 015°54'0 0.0
2015-Jun-30 15:33N 38°27' E 015°54'0 0.0
2015-Jun-30 14:33N 38°27' E 015°54'0 0.0
2015-Jun-30 13:33N 38°27' E 015°54'0 0.0
2015-Jun-30 12:33N 38°27' E 015°54'0 0.0
2015-Jun-30 11:33N 38°27' E 015°54'0 0.0
2015-Jun-30 10:33N 38°27' E 015°54'0 0.0
2015-Jun-30 09:33N 38°27' E 015°54'0 0.0
2015-Jun-30 08:33N 38°27' E 015°54'0 0.0
2015-Jun-30 07:33N 38°27' E 015°54'0 0.0
2015-Jun-30 06:33N 38°27' E 015°54'0 0.0
2015-Jun-30 05:33N 38°27' E 015°54'0 0.0
2015-Jun-30 04:33N 38°27' E 015°54'0 0.0
2015-Jun-30 03:33N 38°27' E 015°54'0 0.0
2015-Jun-30 02:33N 38°27' E 015°54'0 0.0
2015-Jun-30 01:33N 38°27' E 015°54'0 0.0
2015-Jun-30 00:33N 38°27' E 015°54'0 0.0
2015-Jun-29 23:33N 38°27' E 015°54'0 0.0
2015-Jun-29 22:33N 38°27' E 015°54'0 0.0
2015-Jun-29 21:33N 38°27' E 015°54'0 0.0
2015-Jun-29 20:33N 38°27' E 015°54'0 0.0
2015-Jun-29 19:33N 38°27' E 015°54'3 3.3
2015-Jun-29 18:33N 38°27' E 015°50'1817.6
2015-Jun-29 17:33N 38°23' E 015°28'1918.7
2015-Jun-29 16:33N 38°19' E 015°05'1717.5
2015-Jun-29 15:34N 38°20' E 014°42'1817.5
2015-Jun-29 14:31N 38°20' E 014°19'1917.4
2015-Jun-29 13:27N 38°20' E 013°56'1818.9
2015-Jun-29 12:32N 38°21' E 013°33'1919.3
2015-Jun-29 11:34N 38°20' E 013°10'1919.2
2015-Jun-29 10:34N 38°19' E 012°45'2018.7
2015-Jun-29 09:28N 38°16' E 012°19'1617.9
2015-Jun-29 08:34N 38°14' E 011°59'1818.1
2015-Jun-29 07:34N 38°12' E 011°36'2120.9
2015-Jun-29 06:33N 38°09' E 011°10'2019.7
2015-Jun-29 05:33N 38°06' E 010°45'1818.5
2015-Jun-29 04:33N 38°03' E 010°22'1818.2
2015-Jun-29 03:33N 37°60' E 009°59'1818.4
2015-Jun-29 02:33N 37°57' E 009°36'1818.0
2015-Jun-29 01:33N 37°54' E 009°13'5317.6
2015-Jun-28 22:34N 37°45' E 008°08'8917.7
2015-Jun-28 17:32N 37°30' E 006°17'1717.6
2015-Jun-28 16:33N 37°27' E 005°56'1817.7
2015-Jun-28 15:33N 37°24' E 005°34'1818.1
2015-Jun-28 14:33N 37°22' E 005°11'5618.0
2015-Jun-28 11:27N 37°11' E 004°02'3517.6
2015-Jun-28 09:28N 37°06' E 003°19'1718.3
2015-Jun-28 08:33N 37°04' E 002°58'2020.0
2015-Jun-28 07:33N 37°00' E 002°33'1919.4
2015-Jun-28 06:33N 36°57' E 002°10'1918.7
2015-Jun-28 05:33N 36°54' E 001°46'1818.3
2015-Jun-28 04:33N 36°51' E 001°24'1818.2
2015-Jun-28 03:33N 36°48' E 001°01'1818.4
2015-Jun-28 02:33N 36°45' E 000°39'1818.3
2015-Jun-28 01:33N 36°42' E 000°16'3617.9
2015-Jun-27 23:33N 36°36' W 000°28'2018.0
2015-Jun-27 22:27N 36°32' W 000°52'1618.0
2015-Jun-27 21:34N 36°30' W 001°12'1817.9
2015-Jun-27 20:33N 36°28' W 001°34'1817.9
2015-Jun-27 19:33N 36°25' W 001°56'1717.2
2015-Jun-27 18:33N 36°20' W 002°17'1817.7
2015-Jun-27 17:33N 36°18' W 002°38'1818.3
2015-Jun-27 16:34N 36°15' W 003°01'1918.6
2015-Jun-27 15:33N 36°12' W 003°23'1919.2
2015-Jun-27 14:33N 36°09' W 003°47'6619.0
2015-Jun-27 11:07N 35°60' W 005°07'1221.0
2015-Jun-27 10:34N 35°58' W 005°21'16818.7
2015-Jun-27 01:33N 36°18' W 008°48'1919.1
2015-Jun-27 00:34N 36°22' W 009°11'1919.3
2015-Jun-26 23:33N 36°27' W 009°35'1919.4
2015-Jun-26 22:33N 36°32' W 009°58'1919.2
2015-Jun-26 21:33N 36°37' W 010°21'1919.1
2015-Jun-26 20:32N 36°43' W 010°44'1918.7
2015-Jun-26 19:33N 36°48' W 011°06'1918.8
2015-Jun-26 18:33N 36°51' W 011°29'1919.0
2015-Jun-26 17:33N 36°57' W 011°52'1918.4
2015-Jun-26 16:32N 37°05' W 012°13'1717.1
2015-Jun-26 15:33N 37°11' W 012°33'1717.2
2015-Jun-26 14:33N 37°18' W 012°53'1717.1
2015-Jun-26 13:33N 37°25' W 013°12'1717.4
2015-Jun-26 12:33N 37°32' W 013°33'1817.5
2015-Jun-26 11:33N 37°39' W 013°53'1817.6
2015-Jun-26 10:33N 37°46' W 014°13'1817.9
2015-Jun-26 09:33N 37°53' W 014°34'1818.0
2015-Jun-26 08:33N 38°00' W 014°55'1818.3
2015-Jun-26 07:33N 38°08' W 015°16'1817.9
2015-Jun-26 06:33N 38°15' W 015°37'1817.7
2015-Jun-26 05:33N 38°22' W 015°58'2017.7
2015-Jun-26 04:24N 38°30' W 016°21'1517.8
2015-Jun-26 03:33N 38°36' W 016°39'1717.4
2015-Jun-26 02:33N 38°43' W 016°59'1817.7
2015-Jun-26 01:33N 38°50' W 017°20'1817.6
2015-Jun-26 00:33N 38°57' W 017°41'2317.7
2015-Jun-25 23:15N 39°06' W 018°08'  
Track history (hours):
 
Tides and Currents Weather Stations Pressure Air Temp Water Temp Dewpoint Dewpoint Depression Visibility Wind Speed Wind Dir Waves Ship Positions

MSC Gina

Last reported at 2015-Jul-02 03:34 UTC. Time now 2015-Jul-02 03:38 UTC.
Position N 43°31' E 010°16'.

Length 259 m; draft 8.3 m.

Type: Ship (hazmat cat A). MMSI: 357542000.

Date/timePositionNaut miles runAvg speedWind from/ knotsBaromVisibWave heightAir tempDewpointWater temp
2015-Jul-02 03:34N 43°31' E 010°16'3 3.5
2015-Jul-02 02:34N 43°28' E 010°13'1817.7
2015-Jul-02 01:33N 43°11' E 010°08'1616.4
2015-Jul-02 00:33N 42°55' E 010°03'1615.7
2015-Jul-01 23:33N 42°40' E 010°09'1717.1
2015-Jul-01 22:33N 42°28' E 010°26'1717.2
2015-Jul-01 21:33N 42°16' E 010°43'1717.0
2015-Jul-01 20:33N 42°04' E 010°59'1717.3
2015-Jul-01 19:33N 41°52' E 011°16'1717.3
2015-Jul-01 18:33N 41°40' E 011°33'1817.5
2015-Jul-01 17:33N 41°28' E 011°50'1817.6
2015-Jul-01 16:33N 41°16' E 012°07'1817.7
2015-Jul-01 15:33N 41°04' E 012°24'1717.0
2015-Jul-01 14:33N 40°52' E 012°40'1515.5
2015-Jul-01 13:33N 40°41' E 012°55'1615.6
2015-Jul-01 12:33N 40°30' E 013°10'1515.4
2015-Jul-01 11:33N 40°20' E 013°24'1818.0
2015-Jul-01 10:33N 40°07' E 013°41'2221.7
2015-Jul-01 09:33N 39°53' E 014°02'2221.7
2015-Jul-01 08:33N 39°38' E 014°23'2020.3
2015-Jul-01 07:33N 39°23' E 014°42'2116.7
2015-Jul-01 06:19N 39°09' E 015°01'1316.5
2015-Jul-01 05:30N 38°60' E 015°14'1616.5
2015-Jul-01 04:33N 38°49' E 015°28'1717.1
2015-Jul-01 03:33N 38°35' E 015°42'1313.0
2015-Jul-01 02:33N 38°27' E 015°54'0 0.1
2015-Jul-01 01:33N 38°27' E 015°54'0 0.0
2015-Jul-01 00:33N 38°27' E 015°54'0 0.0
2015-Jun-30 23:33N 38°27' E 015°54'0 0.0
2015-Jun-30 22:33N 38°27' E 015°54'0 0.0
2015-Jun-30 21:33N 38°27' E 015°54'0 0.0
2015-Jun-30 20:33N 38°27' E 015°54'0 0.0
2015-Jun-30 19:33N 38°27' E 015°54'0 0.0
2015-Jun-30 18:31N 38°27' E 015°54'0 0.0
2015-Jun-30 17:33N 38°27' E 015°54'0 0.0
2015-Jun-30 16:33N 38°27' E 015°54'0 0.0
2015-Jun-30 15:33N 38°27' E 015°54'0 0.0
2015-Jun-30 14:33N 38°27' E 015°54'0 0.0
2015-Jun-30 13:33N 38°27' E 015°54'0 0.0
2015-Jun-30 12:33N 38°27' E 015°54'0 0.0
2015-Jun-30 11:33N 38°27' E 015°54'0 0.0
2015-Jun-30 10:33N 38°27' E 015°54'0 0.0
2015-Jun-30 09:33N 38°27' E 015°54'0 0.0
2015-Jun-30 08:33N 38°27' E 015°54'0 0.0
2015-Jun-30 07:33N 38°27' E 015°54'0 0.0
2015-Jun-30 06:33N 38°27' E 015°54'0 0.0
2015-Jun-30 05:33N 38°27' E 015°54'0 0.0
2015-Jun-30 04:33N 38°27' E 015°54'0 0.0
2015-Jun-30 03:33N 38°27' E 015°54'0 0.0
2015-Jun-30 02:33N 38°27' E 015°54'0 0.0
2015-Jun-30 01:33N 38°27' E 015°54'0 0.0
2015-Jun-30 00:33N 38°27' E 015°54'0 0.0
2015-Jun-29 23:33N 38°27' E 015°54'0 0.0
2015-Jun-29 22:33N 38°27' E 015°54'0 0.0
2015-Jun-29 21:33N 38°27' E 015°54'0 0.0
2015-Jun-29 20:33N 38°27' E 015°54'0 0.0
2015-Jun-29 19:33N 38°27' E 015°54'3 3.3
2015-Jun-29 18:33N 38°27' E 015°50'1817.6
2015-Jun-29 17:33N 38°23' E 015°28'1918.7
2015-Jun-29 16:33N 38°19' E 015°05'1717.5
2015-Jun-29 15:34N 38°20' E 014°42'1817.5
2015-Jun-29 14:31N 38°20' E 014°19'1917.4
2015-Jun-29 13:27N 38°20' E 013°56'1818.9
2015-Jun-29 12:32N 38°21' E 013°33'1919.3
2015-Jun-29 11:34N 38°20' E 013°10'1919.2
2015-Jun-29 10:34N 38°19' E 012°45'2018.7
2015-Jun-29 09:28N 38°16' E 012°19'1617.9
2015-Jun-29 08:34N 38°14' E 011°59'1818.1
2015-Jun-29 07:34N 38°12' E 011°36'2120.9
2015-Jun-29 06:33N 38°09' E 011°10'2019.7
2015-Jun-29 05:33N 38°06' E 010°45'1818.5
2015-Jun-29 04:33N 38°03' E 010°22'1818.2
2015-Jun-29 03:33N 37°60' E 009°59'1818.4
2015-Jun-29 02:33N 37°57' E 009°36'1818.0
2015-Jun-29 01:33N 37°54' E 009°13'5317.6
2015-Jun-28 22:34N 37°45' E 008°08'8917.7
2015-Jun-28 17:32N 37°30' E 006°17'1717.6
2015-Jun-28 16:33N 37°27' E 005°56'1817.7
2015-Jun-28 15:33N 37°24' E 005°34'1818.1
2015-Jun-28 14:33N 37°22' E 005°11'5618.0
2015-Jun-28 11:27N 37°11' E 004°02'3517.6
2015-Jun-28 09:28N 37°06' E 003°19'1718.3
2015-Jun-28 08:33N 37°04' E 002°58'2020.0
2015-Jun-28 07:33N 37°00' E 002°33'1919.4
2015-Jun-28 06:33N 36°57' E 002°10'1918.7
2015-Jun-28 05:33N 36°54' E 001°46'1818.3
2015-Jun-28 04:33N 36°51' E 001°24'1818.2
2015-Jun-28 03:33N 36°48' E 001°01'1818.4
2015-Jun-28 02:33N 36°45' E 000°39'1818.3
2015-Jun-28 01:33N 36°42' E 000°16'3617.9
2015-Jun-27 23:33N 36°36' W 000°28'2018.0
2015-Jun-27 22:27N 36°32' W 000°52'1618.0
2015-Jun-27 21:34N 36°30' W 001°12'1817.9
2015-Jun-27 20:33N 36°28' W 001°34'1817.9
2015-Jun-27 19:33N 36°25' W 001°56'1717.2
2015-Jun-27 18:33N 36°20' W 002°17'1817.7
2015-Jun-27 17:33N 36°18' W 002°38'1818.3
2015-Jun-27 16:34N 36°15' W 003°01'1918.6
2015-Jun-27 15:33N 36°12' W 003°23'1919.2
2015-Jun-27 14:33N 36°09' W 003°47'6619.0
2015-Jun-27 11:07N 35°60' W 005°07'1221.0
2015-Jun-27 10:34N 35°58' W 005°21'16818.7
2015-Jun-27 01:33N 36°18' W 008°48'1919.1
2015-Jun-27 00:34N 36°22' W 009°11'1919.3
2015-Jun-26 23:33N 36°27' W 009°35'1919.4
2015-Jun-26 22:33N 36°32' W 009°58'1919.2
2015-Jun-26 21:33N 36°37' W 010°21'1919.1
2015-Jun-26 20:32N 36°43' W 010°44'1918.7
2015-Jun-26 19:33N 36°48' W 011°06'1918.8
2015-Jun-26 18:33N 36°51' W 011°29'1919.0
2015-Jun-26 17:33N 36°57' W 011°52'1918.4
2015-Jun-26 16:32N 37°05' W 012°13'1717.1
2015-Jun-26 15:33N 37°11' W 012°33'1717.2
2015-Jun-26 14:33N 37°18' W 012°53'1717.1
2015-Jun-26 13:33N 37°25' W 013°12'1717.4
2015-Jun-26 12:33N 37°32' W 013°33'1817.5
2015-Jun-26 11:33N 37°39' W 013°53'1817.6
2015-Jun-26 10:33N 37°46' W 014°13'1817.9
2015-Jun-26 09:33N 37°53' W 014°34'1818.0
2015-Jun-26 08:33N 38°00' W 014°55'1818.3
2015-Jun-26 07:33N 38°08' W 015°16'1817.9
2015-Jun-26 06:33N 38°15' W 015°37'1817.7
2015-Jun-26 05:33N 38°22' W 015°58'2017.7
2015-Jun-26 04:24N 38°30' W 016°21'1517.8
2015-Jun-26 03:33N 38°36' W 016°39'1717.4
2015-Jun-26 02:33N 38°43' W 016°59'1817.7
2015-Jun-26 01:33N 38°50' W 017°20'1817.6
2015-Jun-26 00:33N 38°57' W 017°41'2317.7
2015-Jun-25 23:15N 39°06' W 018°08'  

Dump ship's entire track history